createdAt,value
2022-10-25T00:03:31.952Z,14
2022-10-25T00:08:33.203Z,15
2022-10-25T00:13:33.287Z,13
2022-10-25T00:18:31.962Z,12
2022-10-25T00:23:33.476Z,12
2022-10-25T00:28:33.219Z,12
2022-10-25T00:33:32.023Z,11
2022-10-25T00:38:33.233Z,12
2022-10-25T00:43:32.601Z,11
2022-10-25T00:48:32.038Z,12
2022-10-25T00:53:32.621Z,11
2022-10-25T00:58:33.550Z,11
2022-10-25T01:03:32.675Z,12
2022-10-25T01:08:32.726Z,12
2022-10-25T01:13:32.699Z,12
2022-10-25T01:18:32.061Z,12
2022-10-25T01:23:33.296Z,16
2022-10-25T01:28:32.737Z,12
2022-10-25T01:33:33.334Z,13
2022-10-25T01:38:32.702Z,14
2022-10-25T01:43:32.151Z,13
2022-10-25T01:48:32.150Z,13
2022-10-25T01:53:32.782Z,13
2022-10-25T01:58:32.665Z,12
2022-10-25T02:03:32.705Z,13
2022-10-25T02:08:32.191Z,13
2022-10-25T02:13:33.415Z,13
2022-10-25T02:18:32.693Z,15
2022-10-25T02:23:32.196Z,15
2022-10-25T02:28:32.805Z,14
2022-10-25T02:33:33.338Z,12
2022-10-25T02:38:32.725Z,12
2022-10-25T02:43:32.376Z,12
2022-10-25T02:48:32.889Z,15
2022-10-25T02:53:33.447Z,14
2022-10-25T02:58:32.864Z,15
2022-10-25T03:03:32.901Z,14
2022-10-25T03:08:32.948Z,13
2022-10-25T03:13:33.531Z,14
2022-10-25T03:18:32.957Z,14
2022-10-25T03:23:32.339Z,14
2022-10-25T03:28:32.938Z,14
2022-10-25T03:33:33.091Z,14
2022-10-25T03:38:32.983Z,15
2022-10-25T03:43:32.384Z,17
2022-10-25T03:48:32.349Z,18
2022-10-25T03:53:32.356Z,20
2022-10-25T03:58:33.008Z,18
2022-10-25T04:03:33.026Z,21
2022-10-25T04:08:33.075Z,17
2022-10-25T04:13:33.632Z,15
2022-10-25T04:18:33.092Z,15
2022-10-25T04:23:33.737Z,19
2022-10-25T04:28:32.487Z,15
2022-10-25T04:33:33.092Z,16
2022-10-25T04:38:33.027Z,13
2022-10-25T04:43:32.953Z,14
2022-10-25T04:48:32.502Z,12
2022-10-25T04:53:33.596Z,11
2022-10-25T04:58:33.613Z,11
2022-10-25T05:03:33.024Z,10
2022-10-25T05:08:32.544Z,13
2022-10-25T05:13:33.084Z,12
2022-10-25T05:18:33.031Z,12
2022-10-25T05:23:33.670Z,10
2022-10-25T05:28:33.100Z,10
2022-10-25T05:33:33.075Z,10
2022-10-25T05:38:35.536Z,11
2022-10-25T05:43:32.614Z,10
2022-10-25T05:48:33.282Z,10
2022-10-25T05:53:33.262Z,10
2022-10-25T05:58:32.593Z,11
2022-10-25T06:03:33.320Z,10
2022-10-25T06:08:33.159Z,12
2022-10-25T06:13:33.134Z,11
2022-10-25T06:18:33.775Z,11
2022-10-25T06:23:33.142Z,11
2022-10-25T06:28:33.177Z,12
2022-10-25T06:33:33.270Z,12
2022-10-25T06:38:32.702Z,11
2022-10-25T06:43:32.696Z,12
2022-10-25T06:48:32.835Z,10
2022-10-25T06:53:33.506Z,10
2022-10-25T06:58:32.738Z,10
2022-10-25T07:03:33.822Z,10
2022-10-25T07:08:33.406Z,11
2022-10-25T07:13:33.222Z,11
2022-10-25T07:18:33.246Z,8
2022-10-25T07:23:33.251Z,10
2022-10-25T07:28:33.285Z,9
2022-10-25T07:33:33.908Z,9
2022-10-25T07:38:33.932Z,9
2022-10-25T07:43:32.919Z,11
2022-10-25T07:48:33.654Z,9
2022-10-25T07:53:33.410Z,11
2022-10-25T07:58:33.454Z,13
2022-10-25T08:03:34.047Z,13
2022-10-25T08:08:33.464Z,14
2022-10-25T08:13:34.122Z,12
2022-10-25T08:18:32.876Z,15
2022-10-25T08:23:33.485Z,15
2022-10-25T08:28:34.087Z,13
2022-10-25T08:33:33.552Z,12
2022-10-25T08:38:33.508Z,12
2022-10-25T08:43:32.987Z,13
2022-10-25T08:48:32.964Z,13
2022-10-25T08:53:33.540Z,13
2022-10-25T08:58:33.660Z,12
2022-10-25T09:03:34.167Z,16
2022-10-25T09:08:33.620Z,13
2022-10-25T09:18:33.592Z,16
2022-10-25T09:23:32.989Z,14
2022-10-25T09:28:34.275Z,11
2022-10-25T09:33:32.963Z,12
2022-10-25T09:38:33.537Z,13
2022-10-25T09:43:32.985Z,18
2022-10-25T09:48:33.587Z,12
2022-10-25T09:53:33.566Z,13
2022-10-25T09:58:34.170Z,12
2022-10-25T10:03:34.194Z,12
2022-10-25T10:08:34.341Z,10
2022-10-25T10:13:33.172Z,12
2022-10-25T10:18:33.847Z,12
2022-10-25T10:23:33.689Z,11
2022-10-25T10:28:33.141Z,11
2022-10-25T10:33:33.859Z,11
2022-10-25T10:38:33.093Z,13
2022-10-25T10:43:33.740Z,11
2022-10-25T10:48:33.167Z,12
2022-10-25T10:53:33.157Z,8
2022-10-25T10:58:34.410Z,8
2022-10-25T11:03:33.923Z,8
2022-10-25T11:08:33.204Z,9
2022-10-25T11:13:33.195Z,8
2022-10-25T11:18:33.819Z,9
2022-10-25T11:23:33.789Z,7
2022-10-25T11:28:34.521Z,7
2022-10-25T11:33:33.806Z,7
2022-10-25T11:38:33.870Z,7
2022-10-25T11:43:33.847Z,10
2022-10-25T11:48:34.033Z,14
2022-10-25T11:53:33.871Z,8
2022-10-25T11:58:33.888Z,8
2022-10-25T12:03:33.919Z,8
2022-10-25T12:08:34.080Z,8
2022-10-25T12:13:33.326Z,12
2022-10-25T12:18:33.913Z,9
2022-10-25T12:23:33.952Z,9
2022-10-25T12:28:34.661Z,9
2022-10-25T12:33:34.522Z,10
2022-10-25T12:38:33.984Z,9
2022-10-25T12:43:33.376Z,8
2022-10-25T12:48:33.507Z,8
2022-10-25T12:53:33.854Z,9
2022-10-25T12:58:35.666Z,9
2022-10-25T13:03:40.163Z,10
2022-10-25T13:08:34.031Z,9
2022-10-25T13:13:34.023Z,8
2022-10-25T13:18:34.028Z,8
2022-10-25T13:23:33.562Z,27
2022-10-25T13:28:36.104Z,10
2022-10-25T13:33:34.131Z,11
2022-10-25T13:38:38.176Z,9
2022-10-25T13:43:34.261Z,8
2022-10-25T13:48:33.461Z,9
2022-10-25T13:53:34.096Z,8
2022-10-25T13:58:34.681Z,9
2022-10-25T14:03:34.154Z,11
2022-10-25T14:08:33.494Z,8
2022-10-25T14:13:34.135Z,9
2022-10-25T14:18:33.528Z,10
2022-10-25T14:23:33.788Z,10
2022-10-25T14:28:34.829Z,9
2022-10-25T14:33:34.558Z,9
2022-10-25T14:38:34.155Z,8
2022-10-25T14:43:34.798Z,13
2022-10-25T14:48:33.615Z,11
2022-10-25T14:53:34.129Z,10
2022-10-25T14:58:34.110Z,9
2022-10-25T15:03:34.118Z,9
2022-10-25T15:08:37.173Z,9
2022-10-25T15:13:34.147Z,11
2022-10-25T15:18:36.009Z,10
2022-10-25T15:23:33.688Z,11
2022-10-25T15:28:34.145Z,9
2022-10-25T15:33:34.249Z,10
2022-10-25T15:38:48.170Z,8
2022-10-25T15:43:33.750Z,9
2022-10-25T15:48:33.701Z,9
2022-10-25T15:53:33.718Z,10
2022-10-25T15:58:34.262Z,9
2022-10-25T16:03:34.407Z,9
2022-10-25T16:13:34.843Z,8
2022-10-25T16:18:36.243Z,9
2022-10-25T16:23:33.777Z,9
2022-10-25T16:28:34.281Z,9
2022-10-25T16:33:34.272Z,10
2022-10-25T16:38:34.278Z,9
2022-10-25T16:43:33.836Z,9
2022-10-25T16:48:33.842Z,10
2022-10-25T16:53:34.470Z,10
2022-10-25T16:58:34.462Z,11
2022-10-25T17:03:34.436Z,12
2022-10-25T17:08:34.444Z,11
2022-10-25T17:13:34.496Z,11
2022-10-25T17:18:34.502Z,10
2022-10-25T17:23:34.523Z,11
2022-10-25T17:28:34.521Z,11
2022-10-25T17:33:35.101Z,12
2022-10-25T17:38:34.912Z,10
2022-10-25T17:43:35.275Z,10
2022-10-25T17:48:33.935Z,10
2022-10-25T17:53:33.928Z,11
2022-10-25T17:58:35.142Z,12
2022-10-25T18:03:36.388Z,12
2022-10-25T18:08:33.967Z,10
2022-10-25T18:13:34.597Z,11
2022-10-25T18:18:34.546Z,11
2022-10-25T18:23:35.257Z,12
2022-10-25T18:28:34.741Z,13
2022-10-25T18:33:34.732Z,16
2022-10-25T18:38:35.248Z,14
2022-10-25T18:43:35.490Z,12
2022-10-25T18:48:34.042Z,17
2022-10-25T18:53:34.035Z,15
2022-10-25T18:58:34.695Z,14
2022-10-25T19:03:34.752Z,14
2022-10-25T19:08:35.301Z,12
2022-10-25T19:13:34.070Z,12
2022-10-25T19:18:34.324Z,11
2022-10-25T19:23:34.253Z,11
2022-10-25T19:28:34.145Z,12
2022-10-25T19:33:35.325Z,10
2022-10-25T19:38:34.152Z,11
2022-10-25T19:43:34.740Z,13
2022-10-25T19:48:39.611Z,13
2022-10-25T19:53:34.198Z,12
2022-10-25T19:58:34.811Z,13
2022-10-25T20:03:34.814Z,13
2022-10-25T20:08:35.381Z,14
2022-10-25T20:13:34.873Z,11
2022-10-25T20:18:35.850Z,10
2022-10-25T20:23:34.836Z,11
2022-10-25T20:28:34.848Z,13
2022-10-25T20:33:34.820Z,10
2022-10-25T20:38:34.214Z,12
2022-10-25T20:43:35.368Z,15
2022-10-25T20:48:34.228Z,15
2022-10-25T20:58:34.876Z,15
2022-10-25T21:03:34.850Z,13
2022-10-25T21:08:34.834Z,14
2022-10-25T21:13:35.375Z,15
2022-10-25T21:18:35.404Z,15
2022-10-25T21:23:34.360Z,15
2022-10-25T21:28:35.419Z,15
2022-10-25T21:33:34.852Z,14
2022-10-25T21:38:34.911Z,15
2022-10-25T21:43:35.481Z,17
2022-10-25T21:48:34.386Z,16
2022-10-25T21:53:34.927Z,16
2022-10-25T21:58:34.937Z,14
2022-10-25T22:03:34.960Z,14
2022-10-25T22:08:34.896Z,15
2022-10-25T22:13:35.871Z,16
2022-10-25T22:18:34.960Z,16
2022-10-25T22:23:34.457Z,15
2022-10-25T22:28:36.644Z,16
2022-10-25T22:33:34.934Z,15
2022-10-25T22:38:35.573Z,13
2022-10-25T22:43:34.572Z,16
2022-10-25T22:48:34.470Z,15
2022-10-25T22:53:34.460Z,14
2022-10-25T22:58:34.993Z,15
2022-10-25T23:03:34.514Z,16
2022-10-25T23:08:34.514Z,16
2022-10-25T23:13:35.163Z,15
2022-10-25T23:18:35.730Z,16
2022-10-25T23:23:35.151Z,14
2022-10-25T23:28:35.142Z,14
2022-10-25T23:33:35.335Z,15
2022-10-25T23:38:35.794Z,15
2022-10-25T23:43:35.178Z,27
2022-10-25T23:48:34.605Z,23
2022-10-25T23:53:34.617Z,12
2022-10-25T23:58:35.229Z,15
